sensor_id;sensor_type;location;lat;lon;timestamp;P1;durP1;ratioP1;P2;durP2;ratioP2
82292;SDS011;71892;14.836;105.234;2023-12-20T00:00:16;12.57;;;4.60;;
82292;SDS011;71892;14.836;105.234;2023-12-20T00:02:43;10.60;;;4.28;;
82292;SDS011;71892;14.836;105.234;2023-12-20T00:05:13;14.05;;;3.55;;
82292;SDS011;71892;14.836;105.234;2023-12-20T00:07:40;12.27;;;3.20;;
82292;SDS011;71892;14.836;105.234;2023-12-20T00:10:06;8.80;;;4.25;;
82292;SDS011;71892;14.836;105.234;2023-12-20T00:12:33;7.88;;;4.55;;
82292;SDS011;71892;14.836;105.234;2023-12-20T00:14:59;8.80;;;3.90;;
82292;SDS011;71892;14.836;105.234;2023-12-20T00:17:25;7.90;;;4.05;;
82292;SDS011;71892;14.836;105.234;2023-12-20T00:19:52;7.97;;;3.35;;
82292;SDS011;71892;14.836;105.234;2023-12-20T00:22:18;82.70;;;8.23;;
82292;SDS011;71892;14.836;105.234;2023-12-20T00:24:44;8.90;;;3.90;;
82292;SDS011;71892;14.836;105.234;2023-12-20T00:27:11;7.20;;;4.00;;
82292;SDS011;71892;14.836;105.234;2023-12-20T00:29:37;28.17;;;7.53;;
82292;SDS011;71892;14.836;105.234;2023-12-20T00:32:04;8.52;;;3.83;;
82292;SDS011;71892;14.836;105.234;2023-12-20T00:34:30;8.82;;;3.10;;
82292;SDS011;71892;14.836;105.234;2023-12-20T00:36:56;7.78;;;2.78;;
82292;SDS011;71892;14.836;105.234;2023-12-20T00:39:23;6.20;;;2.80;;
82292;SDS011;71892;14.836;105.234;2023-12-20T00:41:50;7.15;;;3.85;;
82292;SDS011;71892;14.836;105.234;2023-12-20T00:44:16;10.15;;;3.28;;
82292;SDS011;71892;14.836;105.234;2023-12-20T00:46:42;6.07;;;2.63;;
82292;SDS011;71892;14.836;105.234;2023-12-20T00:49:09;6.43;;;2.72;;
82292;SDS011;71892;14.836;105.234;2023-12-20T00:51:35;7.57;;;2.67;;
82292;SDS011;71892;14.836;105.234;2023-12-20T00:54:01;11.63;;;2.63;;
82292;SDS011;71892;14.836;105.234;2023-12-20T00:56:28;5.93;;;2.55;;
82292;SDS011;71892;14.836;105.234;2023-12-20T00:58:54;6.25;;;1.95;;
82292;SDS011;71892;14.836;105.234;2023-12-20T01:01:21;5.72;;;2.42;;
82292;SDS011;71892;14.836;105.234;2023-12-20T01:03:47;9.13;;;2.70;;
82292;SDS011;71892;14.836;105.234;2023-12-20T01:06:13;6.32;;;2.05;;
82292;SDS011;71892;14.836;105.234;2023-12-20T01:08:41;5.72;;;1.85;;
82292;SDS011;71892;14.836;105.234;2023-12-20T01:11:07;4.80;;;2.20;;
82292;SDS011;71892;14.836;105.234;2023-12-20T01:13:33;7.90;;;2.50;;
82292;SDS011;71892;14.836;105.234;2023-12-20T01:16:00;6.53;;;2.30;;
82292;SDS011;71892;14.836;105.234;2023-12-20T01:18:27;5.43;;;2.05;;
82292;SDS011;71892;14.836;105.234;2023-12-20T01:20:53;8.50;;;2.38;;
82292;SDS011;71892;14.836;105.234;2023-12-20T01:23:20;5.18;;;2.17;;
82292;SDS011;71892;14.836;105.234;2023-12-20T01:25:46;7.57;;;2.53;;
82292;SDS011;71892;14.836;105.234;2023-12-20T01:28:13;17.30;;;2.40;;
82292;SDS011;71892;14.836;105.234;2023-12-20T01:30:40;5.47;;;2.35;;
82292;SDS011;71892;14.836;105.234;2023-12-20T01:33:06;6.57;;;2.35;;
82292;SDS011;71892;14.836;105.234;2023-12-20T01:35:38;4.18;;;1.60;;
82292;SDS011;71892;14.836;105.234;2023-12-20T01:38:05;7.22;;;1.73;;
82292;SDS011;71892;14.836;105.234;2023-12-20T01:40:32;6.55;;;1.98;;
82292;SDS011;71892;14.836;105.234;2023-12-20T01:43:02;5.93;;;1.83;;
82292;SDS011;71892;14.836;105.234;2023-12-20T01:45:34;6.38;;;2.47;;
82292;SDS011;71892;14.836;105.234;2023-12-20T01:48:00;10.48;;;3.28;;
82292;SDS011;71892;14.836;105.234;2023-12-20T01:50:28;7.35;;;1.98;;
82292;SDS011;71892;14.836;105.234;2023-12-20T01:52:56;5.15;;;2.15;;
82292;SDS011;71892;14.836;105.234;2023-12-20T01:55:25;6.75;;;3.22;;
82292;SDS011;71892;14.836;105.234;2023-12-20T01:57:55;11.13;;;3.40;;
82292;SDS011;71892;14.836;105.234;2023-12-20T02:00:23;5.78;;;2.22;;
82292;SDS011;71892;14.836;105.234;2023-12-20T02:02:53;9.43;;;1.73;;
82292;SDS011;71892;14.836;105.234;2023-12-20T02:05:23;3.90;;;1.40;;
82292;SDS011;71892;14.836;105.234;2023-12-20T02:07:51;7.63;;;2.03;;
82292;SDS011;71892;14.836;105.234;2023-12-20T02:10:17;5.93;;;2.15;;
82292;SDS011;71892;14.836;105.234;2023-12-20T02:12:53;4.20;;;1.70;;
82292;SDS011;71892;14.836;105.234;2023-12-20T02:15:20;4.85;;;1.50;;
82292;SDS011;71892;14.836;105.234;2023-12-20T02:17:47;3.90;;;1.50;;
82292;SDS011;71892;14.836;105.234;2023-12-20T02:20:13;6.28;;;1.95;;
82292;SDS011;71892;14.836;105.234;2023-12-20T02:22:40;9.40;;;1.65;;
82292;SDS011;71892;14.836;105.234;2023-12-20T02:25:06;5.00;;;1.83;;
82292;SDS011;71892;14.836;105.234;2023-12-20T02:27:33;4.10;;;1.60;;
82292;SDS011;71892;14.836;105.234;2023-12-20T02:30:00;4.10;;;1.52;;
82292;SDS011;71892;14.836;105.234;2023-12-20T02:32:28;3.80;;;1.58;;
82292;SDS011;71892;14.836;105.234;2023-12-20T02:34:55;9.10;;;1.75;;
82292;SDS011;71892;14.836;105.234;2023-12-20T02:37:21;3.88;;;1.83;;
82292;SDS011;71892;14.836;105.234;2023-12-20T02:39:48;5.43;;;2.20;;
82292;SDS011;71892;14.836;105.234;2023-12-20T02:42:14;4.35;;;1.60;;
82292;SDS011;71892;14.836;105.234;2023-12-20T02:44:41;4.03;;;1.70;;
82292;SDS011;71892;14.836;105.234;2023-12-20T02:47:07;4.90;;;1.67;;
82292;SDS011;71892;14.836;105.234;2023-12-20T02:49:33;8.07;;;2.05;;
82292;SDS011;71892;14.836;105.234;2023-12-20T02:52:00;6.88;;;2.30;;
82292;SDS011;71892;14.836;105.234;2023-12-20T02:54:26;4.90;;;1.77;;
82292;SDS011;71892;14.836;105.234;2023-12-20T02:56:52;5.85;;;1.70;;
82292;SDS011;71892;14.836;105.234;2023-12-20T02:59:19;6.40;;;1.88;;
82292;SDS011;71892;14.836;105.234;2023-12-20T03:01:45;6.13;;;1.88;;
82292;SDS011;71892;14.836;105.234;2023-12-20T03:04:12;4.05;;;1.80;;
82292;SDS011;71892;14.836;105.234;2023-12-20T03:06:38;6.78;;;1.80;;
82292;SDS011;71892;14.836;105.234;2023-12-20T03:09:05;4.45;;;1.40;;
82292;SDS011;71892;14.836;105.234;2023-12-20T03:11:30;5.40;;;1.38;;
82292;SDS011;71892;14.836;105.234;2023-12-20T03:13:57;4.40;;;1.40;;
82292;SDS011;71892;14.836;105.234;2023-12-20T03:16:23;4.75;;;1.27;;
82292;SDS011;71892;14.836;105.234;2023-12-20T03:18:50;4.30;;;1.13;;
82292;SDS011;71892;14.836;105.234;2023-12-20T03:21:16;4.10;;;1.23;;
82292;SDS011;71892;14.836;105.234;2023-12-20T03:23:42;3.17;;;1.02;;
82292;SDS011;71892;14.836;105.234;2023-12-20T03:26:09;9.32;;;1.45;;
82292;SDS011;71892;14.836;105.234;2023-12-20T03:28:36;5.80;;;1.23;;
82292;SDS011;71892;14.836;105.234;2023-12-20T03:31:02;9.38;;;1.40;;
82292;SDS011;71892;14.836;105.234;2023-12-20T03:33:29;2.95;;;1.23;;
82292;SDS011;71892;14.836;105.234;2023-12-20T03:35:55;4.25;;;1.30;;
82292;SDS011;71892;14.836;105.234;2023-12-20T03:38:22;3.65;;;1.45;;
82292;SDS011;71892;14.836;105.234;2023-12-20T03:40:51;3.30;;;1.20;;
82292;SDS011;71892;14.836;105.234;2023-12-20T03:43:17;8.82;;;1.45;;
82292;SDS011;71892;14.836;105.234;2023-12-20T03:45:44;4.05;;;1.23;;
82292;SDS011;71892;14.836;105.234;2023-12-20T03:48:11;4.15;;;1.30;;
82292;SDS011;71892;14.836;105.234;2023-12-20T03:50:37;5.18;;;1.08;;
82292;SDS011;71892;14.836;105.234;2023-12-20T03:53:03;4.40;;;1.10;;
82292;SDS011;71892;14.836;105.234;2023-12-20T03:55:30;4.55;;;1.92;;
82292;SDS011;71892;14.836;105.234;2023-12-20T03:58:03;9.25;;;1.52;;
82292;SDS011;71892;14.836;105.234;2023-12-20T04:00:29;5.15;;;1.50;;
82292;SDS011;71892;14.836;105.234;2023-12-20T04:02:56;4.75;;;1.10;;
82292;SDS011;71892;14.836;105.234;2023-12-20T04:05:22;3.00;;;1.10;;
82292;SDS011;71892;14.836;105.234;2023-12-20T04:07:59;3.00;;;1.20;;
82292;SDS011;71892;14.836;105.234;2023-12-20T04:10:27;5.57;;;1.40;;
82292;SDS011;71892;14.836;105.234;2023-12-20T04:12:53;3.67;;;1.30;;
82292;SDS011;71892;14.836;105.234;2023-12-20T04:15:20;3.33;;;1.20;;
82292;SDS011;71892;14.836;105.234;2023-12-20T04:17:46;3.08;;;1.20;;
82292;SDS011;71892;14.836;105.234;2023-12-20T04:20:13;4.40;;;1.17;;
82292;SDS011;71892;14.836;105.234;2023-12-20T04:22:39;6.78;;;1.30;;
82292;SDS011;71892;14.836;105.234;2023-12-20T04:25:06;6.05;;;1.48;;
82292;SDS011;71892;14.836;105.234;2023-12-20T04:27:32;4.53;;;1.27;;
82292;SDS011;71892;14.836;105.234;2023-12-20T04:29:59;4.85;;;1.50;;
82292;SDS011;71892;14.836;105.234;2023-12-20T04:32:25;4.90;;;1.45;;
82292;SDS011;71892;14.836;105.234;2023-12-20T04:34:51;4.32;;;1.58;;
82292;SDS011;71892;14.836;105.234;2023-12-20T04:37:18;2.50;;;1.10;;
82292;SDS011;71892;14.836;105.234;2023-12-20T04:39:44;2.97;;;1.10;;
82292;SDS011;71892;14.836;105.234;2023-12-20T04:42:10;2.85;;;0.93;;
82292;SDS011;71892;14.836;105.234;2023-12-20T04:44:37;3.00;;;1.10;;
82292;SDS011;71892;14.836;105.234;2023-12-20T04:47:03;2.38;;;1.00;;
82292;SDS011;71892;14.836;105.234;2023-12-20T04:49:30;2.10;;;0.98;;
82292;SDS011;71892;14.836;105.234;2023-12-20T04:51:56;4.15;;;1.10;;
82292;SDS011;71892;14.836;105.234;2023-12-20T04:54:23;7.82;;;1.67;;
82292;SDS011;71892;14.836;105.234;2023-12-20T04:56:55;7.32;;;1.10;;
82292;SDS011;71892;14.836;105.234;2023-12-20T04:59:28;6.32;;;1.27;;
82292;SDS011;71892;14.836;105.234;2023-12-20T05:01:54;3.60;;;1.30;;
82292;SDS011;71892;14.836;105.234;2023-12-20T05:04:20;2.22;;;0.77;;
82292;SDS011;71892;14.836;105.234;2023-12-20T05:06:47;4.15;;;0.80;;
82292;SDS011;71892;14.836;105.234;2023-12-20T05:09:15;6.53;;;1.60;;
82292;SDS011;71892;14.836;105.234;2023-12-20T05:11:41;3.35;;;0.77;;
82292;SDS011;71892;14.836;105.234;2023-12-20T05:14:08;2.72;;;0.90;;
82292;SDS011;71892;14.836;105.234;2023-12-20T05:16:34;11.77;;;1.23;;
82292;SDS011;71892;14.836;105.234;2023-12-20T05:19:00;1.77;;;0.60;;
82292;SDS011;71892;14.836;105.234;2023-12-20T05:21:32;4.63;;;0.90;;
82292;SDS011;71892;14.836;105.234;2023-12-20T05:23:58;9.68;;;1.00;;
82292;SDS011;71892;14.836;105.234;2023-12-20T05:26:26;3.90;;;0.93;;
82292;SDS011;71892;14.836;105.234;2023-12-20T05:28:52;3.95;;;1.00;;
82292;SDS011;71892;14.836;105.234;2023-12-20T05:31:18;4.07;;;0.93;;
82292;SDS011;71892;14.836;105.234;2023-12-20T05:33:45;3.20;;;1.27;;
82292;SDS011;71892;14.836;105.234;2023-12-20T05:36:11;3.28;;;1.15;;
82292;SDS011;71892;14.836;105.234;2023-12-20T05:38:39;4.97;;;1.27;;
82292;SDS011;71892;14.836;105.234;2023-12-20T05:41:05;5.78;;;1.45;;
82292;SDS011;71892;14.836;105.234;2023-12-20T05:43:31;4.82;;;1.05;;
82292;SDS011;71892;14.836;105.234;2023-12-20T05:45:58;4.40;;;0.90;;
82292;SDS011;71892;14.836;105.234;2023-12-20T05:48:24;2.35;;;0.90;;
82292;SDS011;71892;14.836;105.234;2023-12-20T05:50:50;3.78;;;1.10;;
82292;SDS011;71892;14.836;105.234;2023-12-20T05:53:17;3.45;;;1.40;;
82292;SDS011;71892;14.836;105.234;2023-12-20T05:55:43;5.90;;;1.40;;
82292;SDS011;71892;14.836;105.234;2023-12-20T05:58:10;4.63;;;1.25;;
82292;SDS011;71892;14.836;105.234;2023-12-20T06:00:36;4.93;;;1.13;;
82292;SDS011;71892;14.836;105.234;2023-12-20T06:03:03;3.97;;;0.82;;
82292;SDS011;71892;14.836;105.234;2023-12-20T06:05:30;6.38;;;1.13;;
82292;SDS011;71892;14.836;105.234;2023-12-20T06:07:57;8.43;;;1.00;;
82292;SDS011;71892;14.836;105.234;2023-12-20T06:10:27;2.88;;;1.15;;
82292;SDS011;71892;14.836;105.234;2023-12-20T06:12:53;6.50;;;0.90;;
82292;SDS011;71892;14.836;105.234;2023-12-20T06:15:19;5.85;;;1.02;;
82292;SDS011;71892;14.836;105.234;2023-12-20T06:17:46;5.28;;;0.98;;
82292;SDS011;71892;14.836;105.234;2023-12-20T06:20:12;4.05;;;0.88;;
82292;SDS011;71892;14.836;105.234;2023-12-20T06:22:38;1.52;;;0.70;;
82292;SDS011;71892;14.836;105.234;2023-12-20T06:25:05;2.22;;;0.73;;
82292;SDS011;71892;14.836;105.234;2023-12-20T06:27:32;3.25;;;0.88;;
82292;SDS011;71892;14.836;105.234;2023-12-20T06:29:58;3.00;;;0.80;;
82292;SDS011;71892;14.836;105.234;2023-12-20T06:32:25;3.72;;;0.90;;
82292;SDS011;71892;14.836;105.234;2023-12-20T06:34:51;5.03;;;0.90;;
82292;SDS011;71892;14.836;105.234;2023-12-20T06:37:17;6.57;;;0.50;;
82292;SDS011;71892;14.836;105.234;2023-12-20T06:39:44;12.98;;;2.05;;
82292;SDS011;71892;14.836;105.234;2023-12-20T06:42:10;5.03;;;0.85;;
82292;SDS011;71892;14.836;105.234;2023-12-20T06:44:36;5.82;;;0.73;;
82292;SDS011;71892;14.836;105.234;2023-12-20T06:47:04;5.30;;;0.85;;
82292;SDS011;71892;14.836;105.234;2023-12-20T06:49:30;3.25;;;0.88;;
82292;SDS011;71892;14.836;105.234;2023-12-20T06:51:57;6.32;;;1.27;;
82292;SDS011;71892;14.836;105.234;2023-12-20T06:54:23;1.80;;;0.55;;
82292;SDS011;71892;14.836;105.234;2023-12-20T06:56:49;5.97;;;0.90;;
82292;SDS011;71892;14.836;105.234;2023-12-20T06:59:16;5.32;;;1.02;;
82292;SDS011;71892;14.836;105.234;2023-12-20T07:01:42;6.57;;;1.10;;
82292;SDS011;71892;14.836;105.234;2023-12-20T07:04:12;6.97;;;0.70;;
82292;SDS011;71892;14.836;105.234;2023-12-20T07:06:39;4.15;;;1.00;;
82292;SDS011;71892;14.836;105.234;2023-12-20T07:09:05;12.65;;;1.75;;
82292;SDS011;71892;14.836;105.234;2023-12-20T07:11:32;4.85;;;0.60;;
82292;SDS011;71892;14.836;105.234;2023-12-20T07:13:58;5.10;;;0.80;;
82292;SDS011;71892;14.836;105.234;2023-12-20T07:16:24;5.88;;;0.73;;
82292;SDS011;71892;14.836;105.234;2023-12-20T07:18:51;6.03;;;0.80;;
82292;SDS011;71892;14.836;105.234;2023-12-20T07:21:17;2.00;;;0.80;;
82292;SDS011;71892;14.836;105.234;2023-12-20T07:23:44;2.88;;;0.80;;
82292;SDS011;71892;14.836;105.234;2023-12-20T07:26:10;3.03;;;0.73;;
82292;SDS011;71892;14.836;105.234;2023-12-20T07:28:37;6.90;;;1.92;;
82292;SDS011;71892;14.836;105.234;2023-12-20T07:31:03;4.25;;;0.82;;
82292;SDS011;71892;14.836;105.234;2023-12-20T07:33:29;3.28;;;0.85;;
82292;SDS011;71892;14.836;105.234;2023-12-20T07:35:56;5.80;;;0.65;;
82292;SDS011;71892;14.836;105.234;2023-12-20T07:38:22;4.57;;;0.77;;
82292;SDS011;71892;14.836;105.234;2023-12-20T07:40:48;5.35;;;0.70;;
82292;SDS011;71892;14.836;105.234;2023-12-20T07:43:15;3.72;;;1.13;;
82292;SDS011;71892;14.836;105.234;2023-12-20T07:45:41;2.95;;;1.17;;
82292;SDS011;71892;14.836;105.234;2023-12-20T07:48:08;32.45;;;3.70;;
82292;SDS011;71892;14.836;105.234;2023-12-20T07:50:34;2.70;;;1.00;;
82292;SDS011;71892;14.836;105.234;2023-12-20T07:53:00;9.07;;;1.48;;
82292;SDS011;71892;14.836;105.234;2023-12-20T07:55:28;5.95;;;1.75;;
82292;SDS011;71892;14.836;105.234;2023-12-20T07:57:55;2.97;;;1.00;;
82292;SDS011;71892;14.836;105.234;2023-12-20T08:00:22;3.75;;;0.77;;
82292;SDS011;71892;14.836;105.234;2023-12-20T08:02:48;6.07;;;0.95;;
82292;SDS011;71892;14.836;105.234;2023-12-20T08:05:14;8.27;;;0.80;;
82292;SDS011;71892;14.836;105.234;2023-12-20T08:07:41;6.00;;;1.40;;
82292;SDS011;71892;14.836;105.234;2023-12-20T08:10:07;2.95;;;0.70;;
82292;SDS011;71892;14.836;105.234;2023-12-20T08:12:34;5.43;;;0.77;;
82292;SDS011;71892;14.836;105.234;2023-12-20T08:15:01;2.13;;;0.60;;
82292;SDS011;71892;14.836;105.234;2023-12-20T08:17:27;5.10;;;1.02;;
82292;SDS011;71892;14.836;105.234;2023-12-20T08:19:54;7.05;;;1.48;;
82292;SDS011;71892;14.836;105.234;2023-12-20T08:22:21;3.90;;;0.70;;
82292;SDS011;71892;14.836;105.234;2023-12-20T08:24:48;5.78;;;1.10;;
82292;SDS011;71892;14.836;105.234;2023-12-20T08:27:14;3.72;;;0.90;;
82292;SDS011;71892;14.836;105.234;2023-12-20T08:29:41;3.25;;;0.80;;
82292;SDS011;71892;14.836;105.234;2023-12-20T08:32:10;4.45;;;0.60;;
82292;SDS011;71892;14.836;105.234;2023-12-20T08:34:37;5.82;;;0.93;;
82292;SDS011;71892;14.836;105.234;2023-12-20T08:37:03;4.90;;;0.80;;
82292;SDS011;71892;14.836;105.234;2023-12-20T08:39:30;5.55;;;0.95;;
82292;SDS011;71892;14.836;105.234;2023-12-20T08:41:59;4.20;;;0.80;;
82292;SDS011;71892;14.836;105.234;2023-12-20T08:44:25;2.63;;;0.80;;
82292;SDS011;71892;14.836;105.234;2023-12-20T08:46:51;11.25;;;0.93;;
82292;SDS011;71892;14.836;105.234;2023-12-20T08:49:18;4.07;;;0.70;;
82292;SDS011;71892;14.836;105.234;2023-12-20T08:51:44;9.85;;;2.13;;
82292;SDS011;71892;14.836;105.234;2023-12-20T08:54:11;6.82;;;0.70;;
82292;SDS011;71892;14.836;105.234;2023-12-20T08:56:45;7.05;;;1.48;;
82292;SDS011;71892;14.836;105.234;2023-12-20T08:59:11;9.27;;;1.08;;
82292;SDS011;71892;14.836;105.234;2023-12-20T09:01:38;4.72;;;1.10;;
82292;SDS011;71892;14.836;105.234;2023-12-20T09:04:04;3.30;;;0.55;;
82292;SDS011;71892;14.836;105.234;2023-12-20T09:06:31;2.15;;;0.70;;
82292;SDS011;71892;14.836;105.234;2023-12-20T09:08:58;6.90;;;0.55;;
82292;SDS011;71892;14.836;105.234;2023-12-20T09:11:24;6.88;;;0.90;;
82292;SDS011;71892;14.836;105.234;2023-12-20T09:13:51;4.72;;;0.80;;
82292;SDS011;71892;14.836;105.234;2023-12-20T09:16:17;1.73;;;0.50;;
82292;SDS011;71892;14.836;105.234;2023-12-20T09:18:43;5.93;;;0.70;;
82292;SDS011;71892;14.836;105.234;2023-12-20T09:21:10;2.60;;;0.63;;
82292;SDS011;71892;14.836;105.234;2023-12-20T09:23:36;3.38;;;0.70;;
82292;SDS011;71892;14.836;105.234;2023-12-20T09:26:02;3.10;;;0.68;;
82292;SDS011;71892;14.836;105.234;2023-12-20T09:28:29;5.55;;;1.35;;
82292;SDS011;71892;14.836;105.234;2023-12-20T09:30:55;2.92;;;0.95;;
82292;SDS011;71892;14.836;105.234;2023-12-20T09:33:21;6.18;;;1.23;;
82292;SDS011;71892;14.836;105.234;2023-12-20T09:35:47;6.40;;;1.20;;
82292;SDS011;71892;14.836;105.234;2023-12-20T09:38:14;6.28;;;1.10;;
82292;SDS011;71892;14.836;105.234;2023-12-20T09:40:42;5.75;;;1.15;;
82292;SDS011;71892;14.836;105.234;2023-12-20T09:43:10;5.57;;;1.10;;
82292;SDS011;71892;14.836;105.234;2023-12-20T09:45:40;6.35;;;1.75;;
82292;SDS011;71892;14.836;105.234;2023-12-20T09:48:11;4.75;;;1.02;;
82292;SDS011;71892;14.836;105.234;2023-12-20T09:50:40;7.75;;;1.00;;
82292;SDS011;71892;14.836;105.234;2023-12-20T09:53:07;9.20;;;1.40;;
82292;SDS011;71892;14.836;105.234;2023-12-20T09:55:35;5.88;;;0.90;;
82292;SDS011;71892;14.836;105.234;2023-12-20T09:58:02;15.80;;;2.53;;
82292;SDS011;71892;14.836;105.234;2023-12-20T10:00:28;6.88;;;1.50;;
82292;SDS011;71892;14.836;105.234;2023-12-20T10:02:58;7.05;;;1.30;;
82292;SDS011;71892;14.836;105.234;2023-12-20T10:05:30;9.93;;;2.53;;
82292;SDS011;71892;14.836;105.234;2023-12-20T10:07:57;32.17;;;10.93;;
82292;SDS011;71892;14.836;105.234;2023-12-20T10:10:24;9.50;;;4.03;;
82292;SDS011;71892;14.836;105.234;2023-12-20T10:13:07;6.18;;;1.30;;
82292;SDS011;71892;14.836;105.234;2023-12-20T10:15:36;9.20;;;1.30;;
82292;SDS011;71892;14.836;105.234;2023-12-20T10:18:03;4.32;;;1.17;;
82292;SDS011;71892;14.836;105.234;2023-12-20T10:20:31;5.20;;;1.10;;
82292;SDS011;71892;14.836;105.234;2023-12-20T10:22:57;3.67;;;0.93;;
82292;SDS011;71892;14.836;105.234;2023-12-20T10:25:25;4.90;;;1.50;;
82292;SDS011;71892;14.836;105.234;2023-12-20T10:28:08;4.03;;;1.27;;
82292;SDS011;71892;14.836;105.234;2023-12-20T10:30:39;4.35;;;1.50;;
82292;SDS011;71892;14.836;105.234;2023-12-20T10:33:06;7.10;;;1.77;;
82292;SDS011;71892;14.836;105.234;2023-12-20T10:35:34;5.70;;;1.45;;
82292;SDS011;71892;14.836;105.234;2023-12-20T10:38:02;6.07;;;1.60;;
82292;SDS011;71892;14.836;105.234;2023-12-20T10:40:31;4.72;;;1.42;;
82292;SDS011;71892;14.836;105.234;2023-12-20T10:43:02;7.50;;;1.80;;
82292;SDS011;71892;14.836;105.234;2023-12-20T10:45:29;5.22;;;1.73;;
82292;SDS011;71892;14.836;105.234;2023-12-20T10:47:55;4.40;;;1.50;;
82292;SDS011;71892;14.836;105.234;2023-12-20T10:50:24;7.55;;;1.90;;
82292;SDS011;71892;14.836;105.234;2023-12-20T10:52:54;8.10;;;2.33;;
82292;SDS011;71892;14.836;105.234;2023-12-20T10:55:24;4.72;;;1.52;;
82292;SDS011;71892;14.836;105.234;2023-12-20T10:57:51;5.25;;;1.40;;
82292;SDS011;71892;14.836;105.234;2023-12-20T11:00:18;6.15;;;1.83;;
82292;SDS011;71892;14.836;105.234;2023-12-20T11:02:46;5.70;;;1.80;;
82292;SDS011;71892;14.836;105.234;2023-12-20T11:10:50;6.82;;;2.58;;
82292;SDS011;71892;14.836;105.234;2023-12-20T11:13:34;4.90;;;2.05;;
82292;SDS011;71892;14.836;105.234;2023-12-20T11:16:06;5.30;;;2.20;;
82292;SDS011;71892;14.836;105.234;2023-12-20T11:18:33;3.63;;;1.90;;
82292;SDS011;71892;14.836;105.234;2023-12-20T11:21:04;7.75;;;2.10;;
82292;SDS011;71892;14.836;105.234;2023-12-20T11:23:31;8.15;;;1.95;;
82292;SDS011;71892;14.836;105.234;2023-12-20T11:26:01;7.60;;;1.75;;
82292;SDS011;71892;14.836;105.234;2023-12-20T11:28:29;7.07;;;1.55;;
82292;SDS011;71892;14.836;105.234;2023-12-20T11:30:56;5.72;;;1.50;;
82292;SDS011;71892;14.836;105.234;2023-12-20T11:33:26;7.03;;;1.73;;
82292;SDS011;71892;14.836;105.234;2023-12-20T11:35:56;7.18;;;2.33;;
82292;SDS011;71892;14.836;105.234;2023-12-20T11:38:25;10.98;;;2.20;;
82292;SDS011;71892;14.836;105.234;2023-12-20T11:40:53;4.22;;;1.42;;
82292;SDS011;71892;14.836;105.234;2023-12-20T11:44:21;4.40;;;1.40;;
82292;SDS011;71892;14.836;105.234;2023-12-20T11:46:20;8.30;;;1.45;;
82292;SDS011;71892;14.836;105.234;2023-12-20T11:48:46;5.00;;;1.65;;
82292;SDS011;71892;14.836;105.234;2023-12-20T11:51:14;8.60;;;2.00;;
82292;SDS011;71892;14.836;105.234;2023-12-20T11:53:40;5.82;;;1.60;;
82292;SDS011;71892;14.836;105.234;2023-12-20T11:56:10;6.78;;;2.35;;
82292;SDS011;71892;14.836;105.234;2023-12-20T11:58:37;10.65;;;1.73;;
82292;SDS011;71892;14.836;105.234;2023-12-20T12:01:04;4.90;;;1.52;;
82292;SDS011;71892;14.836;105.234;2023-12-20T12:03:33;10.23;;;2.15;;
82292;SDS011;71892;14.836;105.234;2023-12-20T12:05:59;5.22;;;1.90;;
82292;SDS011;71892;14.836;105.234;2023-12-20T12:08:26;7.25;;;1.98;;
82292;SDS011;71892;14.836;105.234;2023-12-20T12:10:52;4.22;;;1.50;;
82292;SDS011;71892;14.836;105.234;2023-12-20T12:13:19;4.20;;;1.60;;
82292;SDS011;71892;14.836;105.234;2023-12-20T12:15:45;8.15;;;2.25;;
82292;SDS011;71892;14.836;105.234;2023-12-20T12:18:16;5.03;;;1.60;;
82292;SDS011;71892;14.836;105.234;2023-12-20T12:20:43;5.35;;;1.67;;
82292;SDS011;71892;14.836;105.234;2023-12-20T12:23:09;3.92;;;1.80;;
82292;SDS011;71892;14.836;105.234;2023-12-20T12:25:36;4.70;;;1.70;;
82292;SDS011;71892;14.836;105.234;2023-12-20T12:28:02;11.30;;;1.83;;
82292;SDS011;71892;14.836;105.234;2023-12-20T12:30:29;6.97;;;2.28;;
82292;SDS011;71892;14.836;105.234;2023-12-20T12:32:56;3.63;;;1.70;;
82292;SDS011;71892;14.836;105.234;2023-12-20T12:35:23;5.68;;;1.80;;
82292;SDS011;71892;14.836;105.234;2023-12-20T12:37:49;10.00;;;1.85;;
82292;SDS011;71892;14.836;105.234;2023-12-20T12:40:17;4.22;;;1.83;;
82292;SDS011;71892;14.836;105.234;2023-12-20T12:42:44;3.58;;;1.50;;
82292;SDS011;71892;14.836;105.234;2023-12-20T12:45:11;10.00;;;2.42;;
82292;SDS011;71892;14.836;105.234;2023-12-20T12:47:38;4.10;;;1.60;;
82292;SDS011;71892;14.836;105.234;2023-12-20T12:50:05;5.65;;;1.52;;
82292;SDS011;71892;14.836;105.234;2023-12-20T12:52:32;4.38;;;1.73;;
82292;SDS011;71892;14.836;105.234;2023-12-20T12:55:06;7.30;;;2.10;;
82292;SDS011;71892;14.836;105.234;2023-12-20T12:57:33;6.05;;;2.08;;
82292;SDS011;71892;14.836;105.234;2023-12-20T12:59:59;6.07;;;1.80;;
82292;SDS011;71892;14.836;105.234;2023-12-20T13:02:26;3.75;;;1.60;;
82292;SDS011;71892;14.836;105.234;2023-12-20T13:04:52;4.13;;;1.30;;
82292;SDS011;71892;14.836;105.234;2023-12-20T13:07:18;3.72;;;1.13;;
82292;SDS011;71892;14.836;105.234;2023-12-20T13:09:44;5.80;;;1.48;;
82292;SDS011;71892;14.836;105.234;2023-12-20T13:12:11;3.65;;;1.38;;
82292;SDS011;71892;14.836;105.234;2023-12-20T13:14:37;7.80;;;1.40;;
82292;SDS011;71892;14.836;105.234;2023-12-20T13:17:03;6.63;;;1.40;;
82292;SDS011;71892;14.836;105.234;2023-12-20T13:19:31;3.63;;;1.40;;
82292;SDS011;71892;14.836;105.234;2023-12-20T13:21:57;3.58;;;1.35;;
82292;SDS011;71892;14.836;105.234;2023-12-20T13:24:24;4.93;;;1.58;;
82292;SDS011;71892;14.836;105.234;2023-12-20T13:26:50;6.10;;;1.70;;
82292;SDS011;71892;14.836;105.234;2023-12-20T13:29:17;5.45;;;1.20;;
82292;SDS011;71892;14.836;105.234;2023-12-20T13:31:43;3.65;;;1.52;;
82292;SDS011;71892;14.836;105.234;2023-12-20T13:34:09;5.45;;;1.55;;
82292;SDS011;71892;14.836;105.234;2023-12-20T13:36:36;4.43;;;1.63;;
82292;SDS011;71892;14.836;105.234;2023-12-20T13:39:03;4.57;;;1.65;;
82292;SDS011;71892;14.836;105.234;2023-12-20T13:41:30;4.88;;;1.88;;
82292;SDS011;71892;14.836;105.234;2023-12-20T13:43:57;3.95;;;1.80;;
82292;SDS011;71892;14.836;105.234;2023-12-20T13:46:23;7.95;;;2.45;;
82292;SDS011;71892;14.836;105.234;2023-12-20T13:48:50;3.88;;;1.50;;
82292;SDS011;71892;14.836;105.234;2023-12-20T13:51:16;7.00;;;1.60;;
82292;SDS011;71892;14.836;105.234;2023-12-20T13:53:43;3.83;;;1.60;;
82292;SDS011;71892;14.836;105.234;2023-12-20T13:56:09;3.83;;;1.63;;
82292;SDS011;71892;14.836;105.234;2023-12-20T13:58:36;4.28;;;1.52;;
82292;SDS011;71892;14.836;105.234;2023-12-20T14:01:02;5.13;;;1.88;;
82292;SDS011;71892;14.836;105.234;2023-12-20T14:03:29;4.55;;;1.88;;
82292;SDS011;71892;14.836;105.234;2023-12-20T14:05:56;6.00;;;1.65;;
82292;SDS011;71892;14.836;105.234;2023-12-20T14:08:22;6.03;;;1.65;;
82292;SDS011;71892;14.836;105.234;2023-12-20T14:10:49;5.85;;;1.80;;
82292;SDS011;71892;14.836;105.234;2023-12-20T14:13:15;4.90;;;1.33;;
82292;SDS011;71892;14.836;105.234;2023-12-20T14:15:42;6.47;;;2.00;;
82292;SDS011;71892;14.836;105.234;2023-12-20T14:18:08;4.93;;;2.22;;
82292;SDS011;71892;14.836;105.234;2023-12-20T14:20:35;4.35;;;1.50;;
82292;SDS011;71892;14.836;105.234;2023-12-20T14:23:04;7.43;;;2.15;;
82292;SDS011;71892;14.836;105.234;2023-12-20T14:25:31;5.00;;;1.90;;